Time;durP1;ratioP1;P1;durP2;ratioP2;P2;SDS_P1;SDS_P2;PMS_P1;PMS_P2;Temp;Humidity;BMP_temperature;BMP_pressure;BME280_temperature;BME280_humidity;BME280_pressure;Samples;Min_cycle;Max_cycle;Signal;HPM_P1;HPM_P2
2023/04/12 00:01:05;;;;;;;2.20;1.30;;;13.60;26.40;;;;;;5072480;28;20179;-67
2023/04/12 00:03:32;;;;;;;2.10;1.20;;;13.80;27.90;;;;;;5104807;28;20772;-67
2023/04/12 00:06:02;;;;;;;2.10;1.20;;;13.50;27.50;;;;;;5072008;28;20475;-67
2023/04/12 00:08:33;;;;;;;2.00;1.10;;;13.80;27.70;;;;;;5070415;28;20813;-67
2023/04/12 00:11:00;;;;;;;1.93;1.10;;;14.00;27.30;;;;;;5072444;28;20418;-67
2023/04/12 00:13:26;;;;;;;2.10;1.30;;;13.80;28.80;;;;;;5072094;28;20425;-67
2023/04/12 00:15:52;;;;;;;2.00;1.10;;;14.00;30.10;;;;;;5072120;28;20462;-68
2023/04/12 00:18:17;;;;;;;2.00;1.20;;;13.80;30.90;;;;;;5070309;28;20191;-67
2023/04/12 00:20:43;;;;;;;2.60;1.93;;;13.70;32.40;;;;;;5069580;28;20180;-67
2023/04/12 00:23:11;;;;;;;2.00;1.20;;;13.80;32.60;;;;;;5071615;28;20202;-67
2023/04/12 00:25:38;;;;;;;2.00;1.10;;;13.70;35.80;;;;;;5072172;28;20186;-67
2023/04/12 00:28:04;;;;;;;2.30;1.30;;;13.80;34.10;;;;;;5072275;28;20897;-67
2023/04/12 00:30:29;;;;;;;2.00;1.20;;;13.80;35.40;;;;;;5070787;28;20430;-67
2023/04/12 00:32:55;;;;;;;2.00;1.20;;;13.80;34.10;;;;;;5071175;28;20429;-67
2023/04/12 00:35:21;;;;;;;2.10;1.30;;;13.90;32.90;;;;;;5071816;28;20169;-68
2023/04/12 00:37:46;;;;;;;2.00;1.20;;;13.80;33.80;;;;;;5071886;28;20172;-69
2023/04/12 00:40:12;;;;;;;2.00;1.10;;;13.80;34.90;;;;;;5071397;28;20187;-68
2023/04/12 00:42:38;;;;;;;2.30;1.50;;;13.80;35.40;;;;;;5069929;28;20176;-67
2023/04/12 00:45:05;;;;;;;2.20;1.40;;;13.90;36.00;;;;;;5071837;28;20179;-67
2023/04/12 00:47:33;;;;;;;2.10;1.30;;;14.60;38.00;;;;;;5071675;28;20696;-67
2023/04/12 00:50:00;;;;;;;2.00;1.10;;;13.40;39.50;;;;;;5071746;28;20482;-68
2023/04/12 00:52:32;;;;;;;2.00;1.20;;;13.40;38.60;;;;;;5069444;28;20422;-67
2023/04/12 00:54:59;;;;;;;2.10;1.30;;;13.50;38.90;;;;;;5071150;28;20436;-67
2023/04/12 00:57:25;;;;;;;2.10;1.20;;;13.30;39.90;;;;;;5071401;28;21039;-69
2023/04/12 00:59:50;;;;;;;2.00;1.20;;;13.40;38.10;;;;;;5071859;28;20533;-67
2023/04/12 01:02:17;;;;;;;2.43;1.50;;;13.50;39.20;;;;;;5068573;28;20207;-67
2023/04/12 01:04:43;;;;;;;3.80;1.67;;;13.50;38.40;;;;;;5071263;28;20175;-67
2023/04/12 01:07:08;;;;;;;2.20;1.40;;;13.50;39.40;;;;;;5071476;28;20444;-67
2023/04/12 01:09:46;;;;;;;1.90;1.10;;;13.40;40.40;;;;;;5070429;28;20180;-67
2023/04/12 01:13:09;;;;;;;2.00;1.20;;;13.50;42.30;;;;;;5070660;28;20182;-68
2023/04/12 01:15:40;;;;;;;1.93;1.10;;;13.50;42.30;;;;;;5029092;28;20455;-67
2023/04/12 01:18:15;;;;;;;2.00;1.20;;;13.30;42.20;;;;;;5029018;28;20442;-68
2023/04/12 01:20:58;;;;;;;2.20;1.40;;;13.20;42.90;;;;;;5028400;28;20442;-67
2023/04/12 01:24:03;;;;;;;2.00;1.10;;;13.20;43.10;;;;;;5026735;28;20442;-68
2023/04/12 01:26:43;;;;;;;2.10;1.30;;;13.40;42.50;;;;;;5027477;28;20475;-67
2023/04/12 01:29:11;;;;;;;2.00;1.23;;;13.30;42.60;;;;;;5012811;28;20946;-67
2023/04/12 01:32:01;;;;;;;2.00;1.20;;;13.00;42.70;;;;;;5011985;28;20419;-71
2023/04/12 01:34:30;;;;;;;2.00;1.23;;;13.00;43.70;;;;;;5021029;28;20447;-67
2023/04/12 01:36:57;;;;;;;1.97;1.10;;;13.00;45.20;;;;;;5027408;28;20467;-67
2023/04/12 01:39:23;;;;;;;2.00;1.20;;;13.20;42.10;;;;;;5027998;28;20444;-67
2023/04/12 01:41:49;;;;;;;2.00;1.20;;;13.30;42.40;;;;;;5028970;28;20792;-69
2023/04/12 01:44:15;;;;;;;2.00;1.20;;;13.30;43.50;;;;;;5025880;28;20184;-68
2023/04/12 01:46:43;;;;;;;1.87;1.10;;;13.10;44.00;;;;;;5046967;28;20203;-69
2023/04/12 01:49:10;;;;;;;2.00;1.27;;;13.10;43.10;;;;;;5071056;28;20818;-67
2023/04/12 01:51:48;;;;;;;2.00;1.20;;;13.00;44.80;;;;;;5070709;28;21148;-67
2023/04/12 01:54:20;;;;;;;1.97;1.20;;;13.00;43.40;;;;;;5073179;28;20456;-67
2023/04/12 01:56:52;;;;;;;1.97;1.20;;;13.10;43.80;;;;;;5067478;28;20449;-67
2023/04/12 01:59:18;;;;;;;2.00;1.10;;;13.20;43.10;;;;;;5074087;28;20960;-67
2023/04/12 02:01:45;;;;;;;1.90;1.10;;;13.50;42.20;;;;;;5074360;28;20792;-67
2023/04/12 02:04:13;;;;;;;2.00;1.30;;;13.50;43.00;;;;;;5074362;28;20433;-68
2023/04/12 02:06:40;;;;;;;1.90;1.10;;;13.70;39.10;;;;;;5036462;22;20530;-75
2023/04/12 02:09:05;;;;;;;2.00;1.30;;;13.60;39.50;;;;;;5014747;28;20416;-75
2023/04/12 02:11:31;;;;;;;1.90;1.10;;;13.50;43.40;;;;;;5013890;28;20428;-75
2023/04/12 02:13:57;;;;;;;1.90;1.10;;;13.50;43.10;;;;;;5009567;28;20170;-74
2023/04/12 02:16:23;;;;;;;1.90;1.20;;;13.30;44.30;;;;;;5014721;28;20259;-75
2023/04/12 02:18:49;;;;;;;1.80;1.00;;;13.30;44.50;;;;;;5017958;28;20249;-74
2023/04/12 02:21:15;;;;;;;3.03;1.67;;;13.30;44.40;;;;;;5014791;28;20408;-73
2023/04/12 02:23:42;;;;;;;1.90;1.10;;;13.30;44.40;;;;;;5011659;28;20442;-75
2023/04/12 02:26:09;;;;;;;1.90;1.20;;;13.20;44.70;;;;;;5015533;28;20213;-75
2023/04/12 02:28:37;;;;;;;1.90;1.20;;;13.40;45.10;;;;;;5015405;28;20911;-75
2023/04/12 02:31:03;;;;;;;2.00;1.20;;;13.10;45.00;;;;;;5014871;28;20415;-76
2023/04/12 02:33:29;;;;;;;2.10;1.30;;;13.10;45.50;;;;;;5013355;28;20515;-75
2023/04/12 02:35:56;;;;;;;2.30;1.60;;;13.40;46.10;;;;;;5013386;28;20554;-75
2023/04/12 02:38:22;;;;;;;2.00;1.30;;;13.40;45.70;;;;;;5020285;28;20491;-73
2023/04/12 02:40:47;;;;;;;1.97;1.20;;;13.10;46.00;;;;;;5014620;28;20420;-73
2023/04/12 02:43:13;;;;;;;2.10;1.30;;;13.30;45.40;;;;;;5012775;28;20486;-75
2023/04/12 02:45:39;;;;;;;2.00;1.30;;;13.10;46.10;;;;;;5014255;28;20193;-75
2023/04/12 02:48:04;;;;;;;1.80;1.10;;;13.00;46.20;;;;;;5011557;28;20187;-75
2023/04/12 02:50:30;;;;;;;2.00;1.30;;;13.00;46.00;;;;;;5014243;28;20173;-74
2023/04/12 02:52:56;;;;;;;2.00;1.30;;;13.00;45.80;;;;;;5014241;28;20182;-74
2023/04/12 02:55:21;;;;;;;2.87;1.93;;;13.10;45.40;;;;;;5013191;28;20205;-75
2023/04/12 02:57:47;;;;;;;1.93;1.13;;;13.30;46.10;;;;;;5012234;28;20239;-75
2023/04/12 03:00:17;;;;;;;1.90;1.20;;;13.00;45.50;;;;;;5010493;28;20169;-75
2023/04/12 03:02:43;;;;;;;2.00;1.30;;;13.00;45.30;;;;;;4994354;28;20420;-75
2023/04/12 03:05:09;;;;;;;2.10;1.30;;;13.10;45.70;;;;;;5002210;28;20467;-75
2023/04/12 03:07:35;;;;;;;1.90;1.20;;;12.90;45.20;;;;;;5012583;28;20817;-75
2023/04/12 03:10:01;;;;;;;2.00;1.20;;;13.10;46.50;;;;;;5020145;28;20440;-75
2023/04/12 03:12:27;;;;;;;2.00;1.20;;;12.70;46.80;;;;;;5012989;28;20447;-74
2023/04/12 03:14:53;;;;;;;2.00;1.30;;;13.10;46.20;;;;;;5012697;28;20416;-75
2023/04/12 03:17:19;;;;;;;2.00;1.30;;;13.00;45.40;;;;;;5013183;28;20462;-75
2023/04/12 03:19:45;;;;;;;1.93;1.20;;;13.50;45.90;;;;;;5012670;28;20436;-74
2023/04/12 03:22:11;;;;;;;2.00;1.20;;;13.00;45.90;;;;;;5013708;28;20172;-74
2023/04/12 03:24:36;;;;;;;1.90;1.20;;;13.20;46.60;;;;;;5013611;28;20409;-75
2023/04/12 03:27:03;;;;;;;1.90;1.10;;;12.80;47.00;;;;;;5012632;28;20297;-75
2023/04/12 03:29:30;;;;;;;2.10;1.30;;;12.90;47.50;;;;;;5012047;28;20605;-74
2023/04/12 03:31:57;;;;;;;1.90;1.10;;;12.60;47.40;;;;;;5016804;28;20432;-75
2023/04/12 03:34:23;;;;;;;1.80;1.10;;;12.90;46.80;;;;;;5013340;28;20775;-75
2023/04/12 03:36:49;;;;;;;1.90;1.10;;;12.80;46.80;;;;;;5012459;28;20866;-75
2023/04/12 03:39:15;;;;;;;2.10;1.40;;;12.80;46.90;;;;;;5012015;28;20436;-75
2023/04/12 03:41:41;;;;;;;1.93;1.20;;;12.80;46.50;;;;;;5025627;28;20522;-74
2023/04/12 03:44:07;;;;;;;2.00;1.20;;;12.80;46.70;;;;;;5013046;28;20684;-73
2023/04/12 03:46:33;;;;;;;1.93;1.10;;;12.80;47.10;;;;;;5013450;28;20529;-75
2023/04/12 03:48:59;;;;;;;1.97;1.20;;;12.80;47.00;;;;;;5011598;28;20188;-76
2023/04/12 03:51:25;;;;;;;2.03;1.27;;;12.80;46.80;;;;;;5013805;28;20433;-75
2023/04/12 03:53:53;;;;;;;2.00;1.20;;;13.20;47.40;;;;;;5013445;28;20176;-72
2023/04/12 03:56:19;;;;;;;1.90;1.10;;;12.90;48.60;;;;;;5013306;28;20835;-72
2023/04/12 03:58:45;;;;;;;2.00;1.30;;;12.90;46.70;;;;;;5010717;28;20437;-75
2023/04/12 04:01:12;;;;;;;1.87;1.10;;;12.80;46.30;;;;;;5015903;28;20438;-75
2023/04/12 04:03:39;;;;;;;1.90;1.10;;;12.80;46.30;;;;;;5012987;28;20408;-75
2023/04/12 04:06:06;;;;;;;1.90;1.10;;;12.70;46.90;;;;;;5013146;28;20448;-75
2023/04/12 04:08:31;;;;;;;2.00;1.20;;;12.60;47.80;;;;;;5012188;28;20440;-75
2023/04/12 04:10:58;;;;;;;1.90;1.10;;;13.20;47.00;;;;;;5021093;28;20439;-75
2023/04/12 04:13:24;;;;;;;2.00;1.30;;;13.30;46.40;;;;;;5014336;28;20813;-75
2023/04/12 04:15:57;;;;;;;2.00;1.20;;;13.10;47.30;;;;;;5012504;28;20456;-75
2023/04/12 04:18:23;;;;;;;2.00;1.30;;;12.80;47.60;;;;;;5012737;28;20224;-75
2023/04/12 04:20:49;;;;;;;1.90;1.20;;;12.70;47.20;;;;;;5010000;28;20432;-75
2023/04/12 04:23:16;;;;;;;2.00;1.20;;;12.80;47.10;;;;;;5012608;28;20177;-75
2023/04/12 04:25:42;;;;;;;1.90;1.13;;;12.90;47.10;;;;;;5006321;28;20448;-75
2023/04/12 04:28:08;;;;;;;3.30;1.50;;;13.00;46.10;;;;;;5011953;28;20438;-76
2023/04/12 04:30:37;;;;;;;2.10;1.33;;;12.90;46.80;;;;;;5014005;28;20439;-75
2023/04/12 04:33:03;;;;;;;2.83;1.27;;;12.80;45.80;;;;;;5017698;28;20515;-75
2023/04/12 04:35:30;;;;;;;1.90;1.20;;;12.60;46.00;;;;;;5012258;28;20432;-75
2023/04/12 04:37:56;;;;;;;1.90;1.17;;;12.90;47.60;;;;;;5012287;28;20424;-75
2023/04/12 04:40:23;;;;;;;2.00;1.20;;;12.90;47.20;;;;;;5010794;28;20440;-75
2023/04/12 04:42:56;;;;;;;1.90;1.23;;;12.80;45.60;;;;;;5018151;28;20432;-74
2023/04/12 04:45:25;;;;;;;1.90;1.10;;;13.00;47.20;;;;;;5018545;28;20857;-75
2023/04/12 04:47:54;;;;;;;2.00;1.20;;;12.60;45.50;;;;;;5005664;28;20812;-74
2023/04/12 04:50:22;;;;;;;1.90;1.10;;;12.40;48.10;;;;;;5011112;28;20928;-74
2023/04/12 04:52:48;;;;;;;2.00;1.30;;;12.30;48.40;;;;;;5010424;28;20435;-75
2023/04/12 04:55:14;;;;;;;1.90;1.10;;;12.60;48.70;;;;;;5012358;28;20438;-75
2023/04/12 04:57:40;;;;;;;1.90;1.10;;;12.60;46.40;;;;;;5012185;28;20920;-75
2023/04/12 05:00:09;;;;;;;1.80;1.10;;;12.90;45.70;;;;;;5012614;28;20903;-74
2023/04/12 05:02:36;;;;;;;2.00;1.27;;;12.90;46.10;;;;;;5014418;28;20456;-74
2023/04/12 05:05:03;;;;;;;1.90;1.20;;;13.00;46.50;;;;;;5021605;28;20456;-74
2023/04/12 05:07:29;;;;;;;1.93;1.17;;;13.10;44.80;;;;;;5011081;28;20451;-73
2023/04/12 05:09:55;;;;;;;1.80;1.10;;;12.90;46.00;;;;;;5011496;28;20544;-75
2023/04/12 05:12:20;;;;;;;1.93;1.20;;;12.90;46.60;;;;;;5009430;28;20200;-75
2023/04/12 05:14:46;;;;;;;1.90;1.10;;;13.10;44.60;;;;;;5022394;28;20683;-75
2023/04/12 05:17:11;;;;;;;2.00;1.30;;;13.10;46.20;;;;;;5009246;28;20208;-75
2023/04/12 05:19:38;;;;;;;2.00;1.27;;;12.90;45.70;;;;;;5011972;28;20173;-74
2023/04/12 05:22:04;;;;;;;2.20;1.40;;;12.50;47.70;;;;;;5010983;28;20577;-75
2023/04/12 05:24:30;;;;;;;1.90;1.20;;;12.50;48.50;;;;;;5008903;28;20440;-71
2023/04/12 05:26:55;;;;;;;1.90;1.10;;;12.10;48.00;;;;;;5011085;28;20583;-74
2023/04/12 05:29:21;;;;;;;1.90;1.20;;;12.10;50.50;;;;;;5010910;28;20218;-74
2023/04/12 05:31:46;;;;;;;1.90;1.20;;;12.40;50.80;;;;;;5009848;28;20616;-75
2023/04/12 05:34:12;;;;;;;2.30;1.57;;;12.60;49.10;;;;;;5008901;28;20281;-74
2023/04/12 05:36:37;;;;;;;2.00;1.27;;;12.50;48.90;;;;;;5010787;28;20219;-76
2023/04/12 05:39:03;;;;;;;1.83;1.17;;;12.30;49.50;;;;;;5010248;28;20178;-75
2023/04/12 05:41:30;;;;;;;1.90;1.20;;;12.30;50.70;;;;;;5008307;28;20181;-75
2023/04/12 05:43:55;;;;;;;1.80;1.10;;;12.60;49.90;;;;;;5009904;28;20552;-76
2023/04/12 05:46:21;;;;;;;1.90;1.20;;;12.60;51.00;;;;;;5012458;28;20458;-74
2023/04/12 05:48:47;;;;;;;1.80;1.10;;;12.50;49.30;;;;;;5009635;28;20193;-76
2023/04/12 05:51:12;;;;;;;2.00;1.30;;;12.80;48.10;;;;;;5010070;28;20435;-75
2023/04/12 05:53:38;;;;;;;1.90;1.20;;;12.70;49.70;;;;;;5010402;28;20182;-74
2023/04/12 05:56:04;;;;;;;1.77;1.10;;;12.70;49.70;;;;;;5015309;28;20274;-76
2023/04/12 05:58:30;;;;;;;2.00;1.40;;;12.50;49.20;;;;;;5019463;28;20940;-73
2023/04/12 06:00:55;;;;;;;1.90;1.20;;;9.80;49.30;;;;;;5010514;28;20515;-76
2023/04/12 06:03:25;;;;;;;1.90;1.20;;;12.60;51.00;;;;;;5011177;28;20188;-76
2023/04/12 06:05:51;;;;;;;2.37;1.50;;;12.80;50.60;;;;;;5009966;28;20211;-75
2023/04/12 06:08:17;;;;;;;1.80;1.10;;;12.30;51.50;;;;;;5012210;28;20441;-75
2023/04/12 06:10:43;;;;;;;2.63;1.70;;;12.20;52.90;;;;;;5009859;28;21010;-76
2023/04/12 06:13:08;;;;;;;1.90;1.20;;;12.10;51.50;;;;;;5013909;28;20464;-76
2023/04/12 06:15:35;;;;;;;1.80;1.20;;;12.10;52.70;;;;;;5011060;28;20213;-76
2023/04/12 06:18:00;;;;;;;1.80;1.20;;;12.30;54.50;;;;;;5011759;28;20178;-76
2023/04/12 06:20:26;;;;;;;1.87;1.20;;;12.30;50.70;;;;;;5011937;28;20440;-76
2023/04/12 06:22:52;;;;;;;1.80;1.20;;;12.30;49.90;;;;;;5010746;28;20181;-75
2023/04/12 06:25:17;;;;;;;1.97;1.30;;;12.60;50.60;;;;;;5011222;28;20194;-74
2023/04/12 06:27:43;;;;;;;1.90;1.20;;;12.30;51.70;;;;;;5012409;28;20191;-73
2023/04/12 06:30:09;;;;;;;1.80;1.20;;;11.80;53.30;;;;;;5024305;28;20476;-75
2023/04/12 06:32:37;;;;;;;1.80;1.10;;;11.90;54.00;;;;;;5010678;28;20194;-74
2023/04/12 06:35:03;;;;;;;1.90;1.30;;;12.50;51.40;;;;;;5011698;28;20455;-75
2023/04/12 06:37:29;;;;;;;1.83;1.20;;;12.10;51.20;;;;;;5015540;28;20456;-76
2023/04/12 06:39:54;;;;;;;1.77;1.10;;;12.10;51.60;;;;;;5011781;28;20430;-76
2023/04/12 06:42:20;;;;;;;1.80;1.10;;;12.50;49.90;;;;;;5013562;28;20267;-75
2023/04/12 06:44:46;;;;;;;1.90;1.20;;;13.20;48.50;;;;;;5014044;28;20191;-75
2023/04/12 06:47:11;;;;;;;1.80;1.10;;;13.30;49.40;;;;;;5014580;28;20236;-75
2023/04/12 06:49:37;;;;;;;1.70;1.10;;;13.30;48.60;;;;;;5017084;28;20870;-76
2023/04/12 06:52:03;;;;;;;1.80;1.20;;;13.10;49.00;;;;;;5013333;28;20702;-76
2023/04/12 06:54:29;;;;;;;1.70;1.10;;;13.30;47.30;;;;;;5013508;28;20460;-76
2023/04/12 06:56:56;;;;;;;1.80;1.10;;;12.90;49.10;;;;;;5011876;28;20339;-76
2023/04/12 06:59:21;;;;;;;1.87;1.27;;;13.10;48.20;;;;;;5015001;28;20586;-76
2023/04/12 07:01:47;;;;;;;1.90;1.20;;;13.20;47.60;;;;;;5016811;28;20439;-76
2023/04/12 07:04:13;;;;;;;1.80;1.20;;;13.10;46.20;;;;;;5012570;28;20213;-76
2023/04/12 07:06:38;;;;;;;1.80;1.10;;;13.40;46.70;;;;;;5023447;28;20205;-78
2023/04/12 07:09:04;;;;;;;1.73;1.17;;;12.60;49.00;;;;;;5016416;28;20178;-78
2023/04/12 07:11:30;;;;;;;1.80;1.20;;;12.70;50.50;;;;;;5017214;28;20349;-79
2023/04/12 07:13:58;;;;;;;1.80;1.23;;;13.30;47.50;;;;;;5008958;28;20631;-78
2023/04/12 07:16:24;;;;;;;1.70;1.10;;;12.80;49.50;;;;;;5011875;28;20468;-79
2023/04/12 07:18:50;;;;;;;2.20;1.43;;;12.90;51.20;;;;;;5015009;28;20469;-78
2023/04/12 07:21:16;;;;;;;1.93;1.40;;;12.90;50.60;;;;;;5012711;28;20457;-82
2023/04/12 07:23:43;;;;;;;1.90;1.40;;;13.20;47.80;;;;;;5013936;28;20430;-78
2023/04/12 07:26:08;;;;;;;1.90;1.30;;;13.40;46.50;;;;;;5013383;28;20939;-74
2023/04/12 07:28:37;;;;;;;1.80;1.30;;;13.10;50.00;;;;;;5005289;28;20445;-73
2023/04/12 07:31:07;;;;;;;1.90;1.27;;;13.30;48.20;;;;;;5009379;28;20178;-74
2023/04/12 07:33:34;;;;;;;1.80;1.20;;;13.10;47.20;;;;;;5010457;28;20927;-74
2023/04/12 07:36:00;;;;;;;1.70;1.20;;;13.10;48.80;;;;;;5011905;28;20876;-74
2023/04/12 07:38:26;;;;;;;1.83;1.30;;;13.30;47.80;;;;;;5011264;28;20437;-73
2023/04/12 07:40:53;;;;;;;1.90;1.30;;;13.50;47.50;;;;;;5013066;28;20951;-73
2023/04/12 07:43:19;;;;;;;1.80;1.10;;;13.80;48.80;;;;;;5012038;28;20188;-73
2023/04/12 07:45:44;;;;;;;1.80;1.27;;;13.90;46.70;;;;;;5011477;28;20452;-74
2023/04/12 07:48:11;;;;;;;1.90;1.30;;;14.40;45.40;;;;;;5011095;28;20523;-74
2023/04/12 07:50:37;;;;;;;1.90;1.30;;;14.40;44.30;;;;;;5015401;28;20181;-74
2023/04/12 07:53:23;;;;;;;1.80;1.20;;;14.30;45.20;;;;;;5011123;28;20497;-75
2023/04/12 07:55:49;;;;;;;1.80;1.23;;;14.60;45.60;;;;;;5012652;28;20460;-74
2023/04/12 07:58:16;;;;;;;1.80;1.27;;;14.70;44.10;;;;;;5012741;28;20415;-74
2023/04/12 08:00:45;;;;;;;1.80;1.20;;;15.20;40.80;;;;;;5019459;28;20492;-73
2023/04/12 08:03:12;;;;;;;1.90;1.20;;;15.00;40.90;;;;;;5017989;28;20431;-72
2023/04/12 08:05:38;;;;;;;1.90;1.20;;;14.70;40.60;;;;;;5010236;28;20906;-73
2023/04/12 08:08:03;;;;;;;1.90;1.30;;;14.90;41.70;;;;;;5013069;28;20495;-74
2023/04/12 08:10:30;;;;;;;1.90;1.20;;;15.00;40.00;;;;;;5013122;28;20180;-73
2023/04/12 08:12:55;;;;;;;1.83;1.20;;;15.10;41.90;;;;;;5041149;23;20754;-69
2023/04/12 08:15:21;;;;;;;2.10;1.40;;;15.10;38.70;;;;;;5032765;28;20490;-70
2023/04/12 08:17:47;;;;;;;2.10;1.30;;;15.00;39.20;;;;;;5026727;28;20301;-71
2023/04/12 08:20:14;;;;;;;1.90;1.20;;;14.70;39.20;;;;;;5026989;28;20212;-69
2023/04/12 08:22:41;;;;;;;2.00;1.33;;;14.70;41.30;;;;;;5018333;28;20630;-69
2023/04/12 08:25:07;;;;;;;1.80;1.10;;;14.70;41.40;;;;;;5008572;28;20490;-68
2023/04/12 08:27:33;;;;;;;1.77;1.10;;;14.50;40.30;;;;;;5007241;28;20944;-70
2023/04/12 08:29:59;;;;;;;2.03;1.33;;;14.60;42.60;;;;;;5010050;28;20428;-70
2023/04/12 08:32:24;;;;;;;1.77;1.13;;;14.50;40.70;;;;;;5007668;28;20205;-68
2023/04/12 08:34:51;;;;;;;1.87;1.20;;;14.90;39.90;;;;;;5009543;28;20165;-70
2023/04/12 08:37:16;;;;;;;2.00;1.30;;;15.00;40.60;;;;;;5011011;28;20463;-69
2023/04/12 08:39:42;;;;;;;1.83;1.20;;;14.60;42.70;;;;;;5028742;28;20445;-70
2023/04/12 08:42:09;;;;;;;2.00;1.30;;;14.50;41.10;;;;;;5007040;28;20294;-71
2023/04/12 08:44:37;;;;;;;2.10;1.30;;;14.60;42.00;;;;;;5008512;28;20183;-70
2023/04/12 08:47:05;;;;;;;1.80;1.17;;;14.70;41.10;;;;;;5005673;28;20432;-70
2023/04/12 08:49:32;;;;;;;2.07;1.40;;;15.10;42.10;;;;;;5007638;28;20428;-70
2023/04/12 08:52:04;;;;;;;1.80;1.20;;;15.40;40.80;;;;;;5008717;28;20450;-70
2023/04/12 08:54:31;;;;;;;1.90;1.30;;;14.90;42.90;;;;;;5004807;28;20463;-69
2023/04/12 08:57:00;;;;;;;1.93;1.27;;;15.10;40.50;;;;;;5011264;28;20467;-70
2023/04/12 08:59:30;;;;;;;1.90;1.30;;;15.80;39.40;;;;;;5009352;28;20925;-70
2023/04/12 09:01:56;;;;;;;2.00;1.40;;;16.20;39.70;;;;;;5008074;28;20483;-70
2023/04/12 09:04:22;;;;;;;1.80;1.20;;;16.70;35.70;;;;;;5008035;28;20436;-70
2023/04/12 09:06:48;;;;;;;1.90;1.30;;;16.80;34.60;;;;;;5007143;28;20918;-71
2023/04/12 09:09:13;;;;;;;1.80;1.20;;;16.50;34.20;;;;;;5009409;28;20467;-69
2023/04/12 09:11:39;;;;;;;1.90;1.30;;;16.80;34.50;;;;;;5008720;28;20180;-70
2023/04/12 09:14:25;;;;;;;1.90;1.30;;;17.10;33.60;;;;;;5008886;28;20181;-70
2023/04/12 09:16:51;;;;;;;1.90;1.30;;;17.00;34.20;;;;;;5001340;28;20565;-66
2023/04/12 09:19:33;;;;;;;1.80;1.20;;;15.20;34.40;;;;;;5010332;28;20519;-71
2023/04/12 09:21:59;;;;;;;1.80;1.20;;;16.80;34.70;;;;;;5008793;28;20283;-71
2023/04/12 09:24:24;;;;;;;1.90;1.20;;;16.90;35.50;;;;;;5007807;28;20511;-71
2023/04/12 09:27:04;;;;;;;1.80;1.10;;;17.10;34.00;;;;;;5007524;28;20239;-67
2023/04/12 09:29:30;;;;;;;1.90;1.23;;;17.30;33.00;;;;;;5008259;28;20182;-71
2023/04/12 09:32:00;;;;;;;1.80;1.20;;;17.40;33.10;;;;;;5011571;28;20506;-67
2023/04/12 09:34:26;;;;;;;1.90;1.20;;;17.40;35.70;;;;;;5008775;28;20912;-71
2023/04/12 09:36:52;;;;;;;1.80;1.17;;;17.70;32.30;;;;;;5008874;28;20466;-70
2023/04/12 09:39:18;;;;;;;1.90;1.30;;;17.70;33.20;;;;;;5005607;28;20174;-71
2023/04/12 09:41:44;;;;;;;1.80;1.13;;;18.00;32.30;;;;;;5005618;28;20460;-69
2023/04/12 09:44:27;;;;;;;1.80;1.20;;;18.20;28.20;;;;;;5008500;28;20650;-70
2023/04/12 09:46:52;;;;;;;1.90;1.30;;;17.80;28.70;;;;;;5005089;28;20405;-68
2023/04/12 09:49:18;;;;;;;1.80;1.20;;;17.50;29.60;;;;;;5011195;28;20470;-71
2023/04/12 09:51:51;;;;;;;1.83;1.10;;;17.90;27.60;;;;;;5007610;28;20181;-71
2023/04/12 09:54:16;;;;;;;1.80;1.10;;;17.90;27.30;;;;;;5008676;28;20178;-70
2023/04/12 09:56:43;;;;;;;2.00;1.30;;;17.60;28.30;;;;;;5011287;28;20456;-70
2023/04/12 09:59:10;;;;;;;1.80;1.20;;;17.10;29.30;;;;;;5011968;28;20201;-70
2023/04/12 10:01:40;;;;;;;1.90;1.30;;;16.60;29.30;;;;;;5006049;28;20457;-67
2023/04/12 10:04:07;;;;;;;2.00;1.30;;;16.20;30.60;;;;;;5008229;28;21080;-70
2023/04/12 10:06:33;;;;;;;2.00;1.33;;;16.70;31.90;;;;;;5011274;28;20406;-70
2023/04/12 10:09:03;;;;;;;2.20;1.50;;;16.70;29.80;;;;;;5008064;28;20431;-68
2023/04/12 10:11:29;;;;;;;1.90;1.30;;;16.70;30.20;;;;;;5010943;28;20904;-71
2023/04/12 10:13:55;;;;;;;2.00;1.30;;;17.00;30.40;;;;;;5010710;28;20507;-71
2023/04/12 10:16:22;;;;;;;1.90;1.20;;;16.40;30.80;;;;;;5011122;28;20469;-69
2023/04/12 10:18:49;;;;;;;2.20;1.30;;;16.90;30.00;;;;;;5014960;28;20918;-70
2023/04/12 10:21:15;;;;;;;2.00;1.30;;;17.30;28.90;;;;;;5013653;28;20432;-70
2023/04/12 10:23:43;;;;;;;2.90;1.60;;;17.40;29.60;;;;;;5007193;28;20513;-71
2023/04/12 10:26:09;;;;;;;1.80;1.10;;;17.30;30.00;;;;;;5010758;28;20431;-69
2023/04/12 10:28:35;;;;;;;1.90;1.17;;;17.30;29.50;;;;;;5014272;28;20420;-70
2023/04/12 10:31:28;;;;;;;2.10;1.30;;;18.10;30.00;;;;;;5014700;28;20651;-70
2023/04/12 10:33:54;;;;;;;2.00;1.33;;;17.10;30.00;;;;;;5013293;28;20214;-70
2023/04/12 10:36:39;;;;;;;1.80;1.10;;;17.10;30.30;;;;;;5010808;28;20505;-70
2023/04/12 10:39:09;;;;;;;2.07;1.23;;;17.30;29.80;;;;;;5010949;28;20438;-70
2023/04/12 10:41:36;;;;;;;2.10;1.40;;;17.50;30.20;;;;;;5011775;28;20429;-70
2023/04/12 10:44:25;;;;;;;2.00;1.30;;;16.70;31.60;;;;;;5007889;28;20785;-70
2023/04/12 10:46:51;;;;;;;1.80;1.10;;;16.80;32.90;;;;;;5007092;28;20800;-69
2023/04/12 10:49:17;;;;;;;2.97;2.17;;;16.80;32.10;;;;;;5008808;28;20438;-70
2023/04/12 10:52:03;;;;;;;1.80;1.10;;;16.40;33.50;;;;;;5010088;28;20183;-71
2023/04/12 10:54:34;;;;;;;2.10;1.33;;;16.80;31.60;;;;;;5011086;28;20429;-70
2023/04/12 10:57:00;;;;;;;1.90;1.10;;;17.40;30.30;;;;;;5014403;28;20461;-70
2023/04/12 10:59:45;;;;;;;2.10;1.40;;;17.40;29.90;;;;;;5013194;28;20493;-70
2023/04/12 11:02:12;;;;;;;1.80;1.10;;;17.30;29.90;;;;;;5006098;28;20456;-70
2023/04/12 11:04:38;;;;;;;2.00;1.30;;;17.40;30.00;;;;;;5013894;28;20468;-70
2023/04/12 11:07:10;;;;;;;1.97;1.20;;;16.90;31.30;;;;;;5014547;28;20896;-70
2023/04/12 11:09:37;;;;;;;1.90;1.20;;;16.80;31.90;;;;;;5014627;28;20177;-70
2023/04/12 11:12:03;;;;;;;2.20;1.40;;;16.70;32.00;;;;;;5013719;28;20478;-70
2023/04/12 11:14:33;;;;;;;2.10;1.30;;;17.00;31.80;;;;;;5005770;28;20516;-70
2023/04/12 11:17:05;;;;;;;2.00;1.30;;;18.00;29.40;;;;;;5014463;28;20585;-70
2023/04/12 11:19:32;;;;;;;2.30;1.30;;;18.40;28.80;;;;;;5030175;28;20427;-68
2023/04/12 11:22:01;;;;;;;2.30;1.30;;;18.90;27.70;;;;;;5014249;28;20959;-70
2023/04/12 11:24:27;;;;;;;2.40;1.20;;;19.60;26.80;;;;;;5006215;28;20435;-70
2023/04/12 11:26:53;;;;;;;2.20;1.10;;;18.90;27.00;;;;;;5014061;28;20420;-70
2023/04/12 11:29:28;;;;;;;2.27;1.20;;;18.60;28.30;;;;;;5014783;28;20480;-71
2023/04/12 11:31:54;;;;;;;2.30;1.20;;;18.70;27.30;;;;;;5013469;28;20435;-70
2023/04/12 11:34:21;;;;;;;2.37;1.40;;;18.10;28.60;;;;;;5011828;28;20520;-71
2023/04/12 11:36:50;;;;;;;2.40;1.30;;;18.20;28.30;;;;;;5006772;28;20457;-70
2023/04/12 11:39:17;;;;;;;2.20;1.30;;;17.60;29.10;;;;;;5014229;28;20402;-69
2023/04/12 11:41:46;;;;;;;2.20;1.30;;;17.30;30.70;;;;;;5013929;28;20876;-70
2023/04/12 11:44:13;;;;;;;2.20;1.30;;;17.10;30.00;;;;;;5013323;28;20440;-70
2023/04/12 11:46:40;;;;;;;2.00;1.20;;;17.10;30.00;;;;;;5006246;28;20443;-70
2023/04/12 11:49:06;;;;;;;2.10;1.30;;;16.80;30.60;;;;;;5001372;28;20409;-68
2023/04/12 11:51:32;;;;;;;2.57;1.73;;;16.90;31.10;;;;;;5013221;28;20449;-68
2023/04/12 11:53:58;;;;;;;2.07;1.20;;;17.40;29.70;;;;;;5013357;28;20200;-70
2023/04/12 11:56:24;;;;;;;2.10;1.20;;;17.00;30.40;;;;;;5011965;28;20475;-69
2023/04/12 11:58:50;;;;;;;2.13;1.20;;;17.00;30.00;;;;;;5007342;28;20341;-69
2023/04/12 12:01:17;;;;;;;2.10;1.27;;;17.30;30.20;;;;;;5009386;28;20418;-67
2023/04/12 12:03:43;;;;;;;2.00;1.20;;;17.20;30.20;;;;;;5013181;28;20197;-67
2023/04/12 12:06:10;;;;;;;2.07;1.20;;;17.30;30.60;;;;;;5012750;28;20408;-68
2023/04/12 12:08:36;;;;;;;2.10;1.30;;;16.90;30.80;;;;;;5009375;28;20430;-68
2023/04/12 12:11:02;;;;;;;2.03;1.20;;;17.10;31.30;;;;;;5007819;28;20420;-68
2023/04/12 12:13:46;;;;;;;2.13;1.30;;;17.20;30.40;;;;;;5027715;28;20464;-67
2023/04/12 12:16:13;;;;;;;2.10;1.20;;;17.10;30.60;;;;;;5012870;28;20181;-67
2023/04/12 12:18:42;;;;;;;2.20;1.30;;;17.40;30.60;;;;;;5011311;28;20461;-68
2023/04/12 12:21:09;;;;;;;2.30;1.30;;;17.70;29.70;;;;;;5003172;28;20958;-67
2023/04/12 12:23:35;;;;;;;2.30;1.30;;;18.10;28.70;;;;;;5004129;28;20434;-68
2023/04/12 12:26:02;;;;;;;2.27;1.20;;;17.80;29.20;;;;;;5012460;28;20405;-68
2023/04/12 12:28:29;;;;;;;2.40;1.20;;;17.80;29.20;;;;;;5027764;28;20177;-68
2023/04/12 12:30:58;;;;;;;2.27;1.30;;;17.40;30.00;;;;;;5012614;28;20405;-68
2023/04/12 12:33:23;;;;;;;2.33;1.20;;;17.50;30.40;;;;;;5006971;28;20466;-69
2023/04/12 12:35:56;;;;;;;2.70;1.43;;;18.30;28.70;;;;;;5005294;28;20413;-69
2023/04/12 12:38:22;;;;;;;2.37;1.20;;;19.00;28.40;;;;;;5011348;28;20234;-68
2023/04/12 12:40:48;;;;;;;2.47;1.20;;;18.60;28.60;;;;;;5027681;28;20430;-68
2023/04/12 12:43:20;;;;;;;2.50;1.10;;;19.30;28.70;;;;;;5010690;28;20605;-69
2023/04/12 12:45:46;;;;;;;2.60;1.10;;;19.50;27.30;;;;;;5004749;28;20178;-69
2023/04/12 12:48:12;;;;;;;2.57;1.23;;;19.00;27.50;;;;;;5011598;28;20411;-69
2023/04/12 12:50:38;;;;;;;2.70;1.40;;;18.60;28.20;;;;;;5012245;28;20414;-68